Time;durP1;ratioP1;P1;durP2;ratioP2;P2;SDS_P1;SDS_P2;PMS_P1;PMS_P2;Temp;Humidity;BMP_temperature;BMP_pressure;BME280_temperature;BME280_humidity;BME280_pressure;Samples;Min_cycle;Max_cycle;Signal;HPM_P1;HPM_P2
2023/05/26 00:01:08;;;;;;;20.42;5.07;;;10.10;99.90;;;;;;5044842;28;20032;-90
2023/05/26 00:03:34;;;;;;;18.15;3.60;;;9.50;99.90;;;;;;5042888;28;20065;-90
2023/05/26 00:06:01;;;;;;;21.23;4.60;;;9.90;99.90;;;;;;5033414;28;20053;-91
2023/05/26 00:08:30;;;;;;;27.45;4.65;;;10.10;99.90;;;;;;5035455;28;20041;-90
2023/05/26 00:10:56;;;;;;;17.38;4.20;;;10.70;99.90;;;;;;5022584;28;20311;-90
2023/05/26 00:13:22;;;;;;;20.60;3.97;;;9.90;99.90;;;;;;5034015;28;20045;-89
2023/05/26 00:15:48;;;;;;;20.27;4.20;;;9.80;99.90;;;;;;5020862;28;20046;-91
2023/05/26 00:18:19;;;;;;;25.77;7.03;;;9.70;99.90;;;;;;5027013;28;20045;-89
2023/05/26 00:20:48;;;;;;;21.70;4.55;;;9.70;99.90;;;;;;5000985;28;20048;-89
2023/05/26 00:23:14;;;;;;;20.65;4.55;;;9.60;99.90;;;;;;5015002;28;20116;-91
2023/05/26 00:25:40;;;;;;;17.35;4.25;;;9.60;99.90;;;;;;5026287;28;20044;-90
2023/05/26 00:28:07;;;;;;;21.58;3.90;;;9.70;99.90;;;;;;5025477;28;20400;-90
2023/05/26 00:30:39;;;;;;;18.08;4.00;;;9.70;99.90;;;;;;5018442;28;20467;-89
2023/05/26 00:33:05;;;;;;;18.08;4.53;;;9.70;99.90;;;;;;5004049;28;20397;-90
2023/05/26 00:35:31;;;;;;;21.58;4.78;;;9.90;99.90;;;;;;5021294;28;20054;-90
2023/05/26 00:37:57;;;;;;;22.17;5.00;;;9.70;99.90;;;;;;5009992;28;20091;-90
2023/05/26 00:40:23;;;;;;;27.38;5.07;;;10.20;99.90;;;;;;5029850;28;20053;-90
2023/05/26 00:42:50;;;;;;;17.73;5.35;;;9.70;99.90;;;;;;5028929;28;20049;-89
2023/05/26 00:45:16;;;;;;;18.83;4.72;;;10.30;99.90;;;;;;5029723;28;20045;-90
2023/05/26 00:47:42;;;;;;;20.48;5.15;;;9.50;99.90;;;;;;5027533;28;20038;-90
2023/05/26 00:50:12;;;;;;;17.55;3.83;;;9.60;99.90;;;;;;5025655;28;20563;-90
2023/05/26 00:52:40;;;;;;;25.42;4.80;;;9.50;99.90;;;;;;5009972;28;20050;-89
2023/05/26 00:55:07;;;;;;;19.98;3.60;;;9.60;99.90;;;;;;5008939;28;20042;-90
2023/05/26 00:57:34;;;;;;;22.05;4.10;;;9.50;99.90;;;;;;5028786;28;20126;-90
2023/05/26 01:00:00;;;;;;;24.63;4.93;;;9.60;99.90;;;;;;5031245;28;20041;-90
2023/05/26 01:02:27;;;;;;;22.05;4.32;;;9.50;99.90;;;;;;5018574;28;20050;-90
2023/05/26 01:04:53;;;;;;;24.77;5.47;;;9.70;99.90;;;;;;5001460;28;20508;-91
2023/05/26 01:07:23;;;;;;;20.30;5.03;;;9.50;99.90;;;;;;5008770;28;20396;-90
2023/05/26 01:09:51;;;;;;;21.30;4.63;;;9.50;99.90;;;;;;5005588;28;20038;-90
2023/05/26 01:12:38;;;;;;;23.48;4.88;;;9.40;99.90;;;;;;5005356;28;20065;-91
2023/05/26 01:15:17;;;;;;;19.45;4.63;;;9.40;99.90;;;;;;5008501;28;20041;-91
2023/05/26 01:17:55;;;;;;;19.50;3.83;;;9.40;99.90;;;;;;5004025;28;20045;-90
2023/05/26 01:20:38;;;;;;;20.63;4.47;;;8.90;99.90;;;;;;5001391;28;20050;-90
2023/05/26 01:23:32;;;;;;;18.58;4.68;;;9.20;99.90;;;;;;5011555;28;20089;-91
2023/05/26 01:26:27;;;;;;;18.33;4.13;;;9.20;99.90;;;;;;5005753;28;20049;-91
2023/05/26 01:28:58;;;;;;;16.50;3.72;;;9.20;99.90;;;;;;5005577;28;20038;-89
2023/05/26 01:31:33;;;;;;;18.02;3.75;;;9.20;99.90;;;;;;5009259;28;20038;-91
2023/05/26 01:34:00;;;;;;;18.50;4.45;;;9.10;99.90;;;;;;4990718;28;20121;-90
2023/05/26 01:36:28;;;;;;;21.33;4.13;;;9.10;99.90;;;;;;4989691;28;20037;-90
2023/05/26 01:38:54;;;;;;;21.13;3.92;;;9.10;99.90;;;;;;4983997;28;20128;-89
2023/05/26 01:41:28;;;;;;;19.55;4.75;;;9.10;99.90;;;;;;4988521;28;20039;-91
2023/05/26 01:44:05;;;;;;;25.33;5.07;;;9.10;99.90;;;;;;5000934;28;20440;-91
2023/05/26 01:46:51;;;;;;;21.23;4.50;;;9.10;99.90;;;;;;4987238;28;20061;-90
2023/05/26 01:49:22;;;;;;;20.13;4.75;;;9.10;99.90;;;;;;4988867;28;20042;-91
2023/05/26 01:51:56;;;;;;;22.92;4.90;;;9.10;99.90;;;;;;5001850;28;20042;-92
2023/05/26 01:54:24;;;;;;;21.48;4.72;;;9.10;99.90;;;;;;5010256;28;20088;-90
2023/05/26 01:56:52;;;;;;;18.58;4.20;;;9.10;99.90;;;;;;5007218;28;20096;-90
2023/05/26 01:59:20;;;;;;;20.90;4.13;;;9.00;99.90;;;;;;4999264;28;20076;-91
2023/05/26 02:01:47;;;;;;;13.02;3.70;;;9.30;99.90;;;;;;4997315;28;20049;-91
2023/05/26 02:04:12;;;;;;;18.70;3.97;;;9.00;99.90;;;;;;5000682;28;20451;-91
2023/05/26 02:06:39;;;;;;;27.58;4.40;;;9.00;99.90;;;;;;5045337;28;20133;-90
2023/05/26 02:09:05;;;;;;;17.45;4.63;;;9.00;99.90;;;;;;5044759;28;20051;-90
2023/05/26 02:11:32;;;;;;;24.60;4.68;;;9.10;99.90;;;;;;5026813;28;20033;-91
2023/05/26 02:13:58;;;;;;;17.67;4.63;;;9.00;99.90;;;;;;5006097;28;20171;-91
2023/05/26 02:16:26;;;;;;;24.52;4.72;;;8.90;99.90;;;;;;5028449;28;20056;-91
2023/05/26 02:18:52;;;;;;;19.13;4.15;;;8.90;99.90;;;;;;5012506;28;20566;-92
2023/05/26 02:21:18;;;;;;;30.40;6.10;;;8.90;99.90;;;;;;5027907;28;20103;-90
2023/05/26 02:23:47;;;;;;;18.45;4.28;;;8.80;99.90;;;;;;5028849;28;20506;-90
2023/05/26 02:26:13;;;;;;;16.58;3.75;;;9.10;99.90;;;;;;5014147;28;20048;-92
2023/05/26 02:28:39;;;;;;;18.15;4.45;;;8.80;99.90;;;;;;5026370;28;20052;-91
2023/05/26 02:31:06;;;;;;;17.65;3.80;;;8.80;99.90;;;;;;5032943;28;20281;-91
2023/05/26 02:33:32;;;;;;;16.85;4.22;;;8.80;99.90;;;;;;5013362;28;20059;-90
2023/05/26 02:35:58;;;;;;;18.67;4.22;;;8.80;99.90;;;;;;5031649;28;20518;-91
2023/05/26 02:38:23;;;;;;;24.42;5.70;;;8.80;99.90;;;;;;5028914;28;20067;-90
2023/05/26 02:40:50;;;;;;;15.50;3.40;;;8.80;99.90;;;;;;5021407;28;20120;-91
2023/05/26 02:43:22;;;;;;;19.75;4.72;;;8.70;99.90;;;;;;5040052;28;20061;-91
2023/05/26 02:45:48;;;;;;;18.88;4.05;;;9.20;99.90;;;;;;5011477;28;20553;-89
2023/05/26 02:48:14;;;;;;;16.50;3.72;;;8.70;99.90;;;;;;5030508;28;20057;-91
2023/05/26 02:50:41;;;;;;;18.15;3.97;;;8.90;99.90;;;;;;5026771;28;20503;-92
2023/05/26 02:53:08;;;;;;;18.88;3.88;;;8.60;99.90;;;;;;5017362;28;20048;-91
2023/05/26 02:55:38;;;;;;;18.60;3.75;;;8.60;99.90;;;;;;5035767;28;20050;-91
2023/05/26 02:58:07;;;;;;;20.90;4.43;;;8.70;99.90;;;;;;5010188;28;20102;-90
2023/05/26 03:00:34;;;;;;;22.08;4.60;;;8.50;99.90;;;;;;5030864;28;20104;-92
2023/05/26 03:03:00;;;;;;;21.45;4.90;;;8.60;99.90;;;;;;5035367;28;20144;-91
2023/05/26 03:05:26;;;;;;;20.05;3.83;;;9.30;99.90;;;;;;5006810;28;20044;-93
2023/05/26 03:07:53;;;;;;;20.50;4.22;;;8.60;99.90;;;;;;5041764;28;20091;-91
2023/05/26 03:10:21;;;;;;;23.20;4.05;;;8.50;99.90;;;;;;5026357;28;20053;-90
2023/05/26 03:12:47;;;;;;;25.73;4.78;;;8.50;99.90;;;;;;5012254;28;20412;-91
2023/05/26 03:15:13;;;;;;;18.88;4.72;;;8.50;99.90;;;;;;5004147;28;20040;-91
2023/05/26 03:17:39;;;;;;;16.02;3.30;;;8.90;99.90;;;;;;5009248;28;20455;-92
2023/05/26 03:20:06;;;;;;;22.42;4.75;;;8.40;99.90;;;;;;5022296;28;20767;-91
2023/05/26 03:22:32;;;;;;;23.40;4.70;;;8.40;99.90;;;;;;5053828;28;20047;-90
2023/05/26 03:24:58;;;;;;;24.67;4.82;;;8.40;99.90;;;;;;5012916;28;20442;-90
2023/05/26 03:27:27;;;;;;;26.50;3.97;;;9.20;99.90;;;;;;5055607;28;20087;-91
2023/05/26 03:29:54;;;;;;;21.90;4.90;;;7.90;99.90;;;;;;5022948;28;20188;-90
2023/05/26 03:32:20;;;;;;;18.95;4.85;;;8.30;99.90;;;;;;5032522;28;20048;-90
2023/05/26 03:34:46;;;;;;;23.23;4.75;;;8.50;99.90;;;;;;5016767;28;20041;-91
2023/05/26 03:37:12;;;;;;;28.95;5.20;;;8.30;99.90;;;;;;5030086;28;20033;-91
2023/05/26 03:39:38;;;;;;;17.88;4.50;;;8.30;99.90;;;;;;5036503;28;20475;-92
2023/05/26 03:42:05;;;;;;;16.75;4.38;;;8.20;99.90;;;;;;5032552;28;20116;-91
2023/05/26 03:44:31;;;;;;;18.83;3.63;;;8.20;99.90;;;;;;5032342;28;20483;-91
2023/05/26 03:47:00;;;;;;;14.88;3.30;;;8.20;99.90;;;;;;5015017;28;20052;-91
2023/05/26 03:49:26;;;;;;;16.85;3.65;;;7.90;99.90;;;;;;5018641;28;20041;-91
2023/05/26 03:51:52;;;;;;;20.00;3.63;;;8.20;99.90;;;;;;5019062;28;20037;-90
2023/05/26 03:54:18;;;;;;;20.58;5.20;;;8.20;99.90;;;;;;5041442;28;20041;-91
2023/05/26 03:56:44;;;;;;;18.40;4.28;;;8.20;99.90;;;;;;5036962;28;20029;-91
2023/05/26 03:59:10;;;;;;;15.88;3.60;;;8.20;99.90;;;;;;5020555;28;20034;-91
2023/05/26 04:01:36;;;;;;;17.77;3.92;;;8.20;99.90;;;;;;5039819;28;20106;-91
2023/05/26 04:04:03;;;;;;;21.70;4.50;;;8.10;99.90;;;;;;5038066;28;20037;-92
2023/05/26 04:06:29;;;;;;;18.05;4.57;;;8.40;99.90;;;;;;5031676;28;20060;-91
2023/05/26 04:08:55;;;;;;;15.57;3.08;;;8.10;99.90;;;;;;5020554;28;20033;-92
2023/05/26 04:11:22;;;;;;;23.08;4.50;;;9.00;99.90;;;;;;5033710;28;20073;-90
2023/05/26 04:13:48;;;;;;;20.05;3.63;;;8.10;99.90;;;;;;5021008;28;20037;-92
2023/05/26 04:16:14;;;;;;;18.23;3.88;;;7.90;99.90;;;;;;5031791;28;20076;-91
2023/05/26 04:18:40;;;;;;;23.15;4.28;;;8.20;99.90;;;;;;5030233;28;20044;-90
2023/05/26 04:21:09;;;;;;;15.25;3.75;;;8.30;99.90;;;;;;5044929;28;20045;-91
2023/05/26 04:23:35;;;;;;;15.65;3.58;;;8.70;99.90;;;;;;5047854;28;20040;-92
2023/05/26 04:26:03;;;;;;;12.55;3.17;;;9.00;99.90;;;;;;5026903;28;20051;-91
2023/05/26 04:28:30;;;;;;;20.98;5.07;;;8.00;99.90;;;;;;5042983;28;20364;-91
2023/05/26 04:30:56;;;;;;;14.15;3.20;;;8.00;99.90;;;;;;5038725;28;20134;-89
2023/05/26 04:33:22;;;;;;;13.48;3.35;;;8.00;99.90;;;;;;5053084;28;20043;-92
2023/05/26 04:35:48;;;;;;;15.05;3.72;;;7.60;99.90;;;;;;5033573;28;20041;-91
2023/05/26 04:38:15;;;;;;;14.95;4.07;;;8.10;99.90;;;;;;5043332;28;20061;-91
2023/05/26 04:40:42;;;;;;;13.95;3.65;;;8.10;99.90;;;;;;5039095;28;20076;-90
2023/05/26 04:43:08;;;;;;;14.88;4.20;;;8.10;99.90;;;;;;5033018;28;20036;-90
2023/05/26 04:45:36;;;;;;;12.15;2.83;;;8.10;99.90;;;;;;5057469;28;20044;-91
2023/05/26 04:48:02;;;;;;;20.38;4.03;;;8.20;99.90;;;;;;5057689;28;20044;-91
2023/05/26 04:50:28;;;;;;;17.25;3.80;;;8.30;99.90;;;;;;5035267;28;20041;-90
2023/05/26 04:52:54;;;;;;;15.90;3.30;;;8.30;99.90;;;;;;5016124;28;20503;-91
2023/05/26 04:55:20;;;;;;;22.02;4.40;;;8.40;99.90;;;;;;5053233;28;20064;-91
2023/05/26 04:57:46;;;;;;;19.42;4.53;;;8.40;99.90;;;;;;5053002;28;20028;-90
2023/05/26 05:00:13;;;;;;;17.75;3.97;;;8.50;99.90;;;;;;5038937;28;20436;-91
2023/05/26 05:02:40;;;;;;;17.42;4.60;;;8.60;99.90;;;;;;5038377;28;20034;-90
2023/05/26 05:05:06;;;;;;;16.85;3.72;;;8.70;99.90;;;;;;5051712;28;20366;-92
2023/05/26 05:07:32;;;;;;;19.98;4.85;;;8.80;99.90;;;;;;5033317;28;20834;-90
2023/05/26 05:09:58;;;;;;;20.80;4.50;;;8.80;99.90;;;;;;5013869;28;20048;-90
2023/05/26 05:12:24;;;;;;;20.55;4.63;;;8.90;99.90;;;;;;5029032;28;20046;-90
2023/05/26 05:14:50;;;;;;;25.38;4.75;;;9.10;99.90;;;;;;5022035;28;20037;-88
2023/05/26 05:17:16;;;;;;;16.08;3.70;;;9.00;99.90;;;;;;5045244;28;20115;-89
2023/05/26 05:19:42;;;;;;;17.80;4.30;;;9.10;99.90;;;;;;5019896;28;20041;-89
2023/05/26 05:22:08;;;;;;;14.90;4.60;;;9.20;99.90;;;;;;5037293;28;20036;-90
2023/05/26 05:24:33;;;;;;;17.77;4.40;;;9.20;99.90;;;;;;5021618;28;20124;-90
2023/05/26 05:27:00;;;;;;;15.32;4.32;;;9.30;99.90;;;;;;5044868;28;20045;-90
2023/05/26 05:29:26;;;;;;;14.30;3.38;;;9.50;99.90;;;;;;5032091;28;20201;-91
2023/05/26 05:31:51;;;;;;;23.13;4.07;;;9.40;99.90;;;;;;5051340;28;20167;-91
2023/05/26 05:34:17;;;;;;;21.27;4.32;;;9.40;99.90;;;;;;5037210;28;20058;-91
2023/05/26 05:36:43;;;;;;;15.48;3.85;;;9.50;99.90;;;;;;5060667;28;20044;-89
2023/05/26 05:39:08;;;;;;;28.00;4.93;;;9.50;99.90;;;;;;5032592;28;20488;-89
2023/05/26 05:41:35;;;;;;;20.15;4.22;;;9.50;99.90;;;;;;5037578;28;20037;-90
2023/05/26 05:44:01;;;;;;;20.65;4.10;;;9.50;99.90;;;;;;5055190;28;20076;-89
2023/05/26 05:46:28;;;;;;;15.27;3.28;;;9.60;99.90;;;;;;5033963;28;20064;-91
2023/05/26 05:48:54;;;;;;;19.90;4.22;;;9.70;99.90;;;;;;5053619;28;20025;-93
2023/05/26 05:51:20;;;;;;;14.70;3.53;;;9.70;99.90;;;;;;5032899;28;20047;-93
2023/05/26 05:53:46;;;;;;;24.25;4.80;;;9.70;99.90;;;;;;5074068;22;20052;-91
2023/05/26 05:56:12;;;;;;;22.63;4.45;;;10.10;99.90;;;;;;5031317;28;20041;-92
2023/05/26 05:58:38;;;;;;;21.55;5.05;;;9.80;99.90;;;;;;5032920;28;20387;-94
2023/05/26 06:21:39;;;;;;;21.80;4.47;;;10.20;99.90;;;;;;5052834;28;20053;-89
2023/05/26 06:24:05;;;;;;;26.98;4.60;;;10.80;99.90;;;;;;5036334;28;20041;-93
2023/05/26 06:26:31;;;;;;;22.42;4.07;;;10.40;99.90;;;;;;5027188;28;20279;-90
2023/05/26 06:28:57;;;;;;;23.35;4.68;;;10.50;99.90;;;;;;5021548;28;20072;-91
2023/05/26 06:31:22;;;;;;;22.52;4.18;;;10.60;99.90;;;;;;5028396;28;20052;-90
2023/05/26 06:33:48;;;;;;;22.88;6.60;;;10.60;99.90;;;;;;5034589;28;20068;-89
